Time;durP1;ratioP1;P1;durP2;ratioP2;P2;SDS_P1;SDS_P2;PMS_P1;PMS_P2;Temp;Humidity;BMP_temperature;BMP_pressure;BME280_temperature;BME280_humidity;BME280_pressure;Samples;Min_cycle;Max_cycle;Signal;HPM_P1;HPM_P2
2022/01/22 00:02:06;;;;;;;3.95;1.77;;;;;;;-2.09;89.82;96721.66;4991251;28;20038;-81
2022/01/22 00:04:32;;;;;;;5.47;1.85;;;;;;;-2.01;88.42;96719.09;5003765;28;20041;-82
2022/01/22 00:06:58;;;;;;;7.00;2.20;;;;;;;-2.03;88.54;96700.38;4986275;28;20038;-81
2022/01/22 00:09:27;;;;;;;3.00;1.70;;;;;;;-1.96;87.85;96685.06;4991262;28;20117;-81
2022/01/22 00:11:54;;;;;;;4.53;1.95;;;;;;;-2.03;88.05;96674.56;4998387;28;20042;-82
2022/01/22 00:14:24;;;;;;;8.27;2.17;;;;;;;-1.99;87.96;96675.88;4990695;28;20050;-80
2022/01/22 00:16:58;;;;;;;2.90;1.60;;;;;;;-1.98;87.13;96677.47;4993493;28;20525;-82
2022/01/22 00:19:24;;;;;;;10.02;2.28;;;;;;;-1.94;87.29;96678.78;5005895;28;20042;-82
2022/01/22 00:21:50;;;;;;;6.25;1.98;;;;;;;-2.01;86.90;96682.97;5007183;28;20047;-81
2022/01/22 00:24:16;;;;;;;6.63;2.13;;;;;;;-1.97;86.78;96686.84;4990709;28;20052;-82
2022/01/22 00:26:43;;;;;;;6.20;2.40;;;;;;;-1.92;87.10;96687.16;4989273;28;20065;-82
2022/01/22 00:29:10;;;;;;;8.48;2.25;;;;;;;-1.98;87.23;96682.66;4990190;28;20533;-81
2022/01/22 00:31:37;;;;;;;7.25;2.40;;;;;;;-1.85;85.38;96682.16;4999360;28;20492;-80
2022/01/22 00:34:03;;;;;;;13.85;3.13;;;;;;;-1.86;85.91;96684.91;5013453;28;20042;-80
2022/01/22 00:36:29;;;;;;;5.50;1.90;;;;;;;-1.87;87.21;96683.28;4990996;28;20043;-80
2022/01/22 00:38:54;;;;;;;5.82;1.77;;;;;;;-1.83;85.95;96674.25;4990466;28;20038;-81
2022/01/22 00:41:21;;;;;;;5.65;2.45;;;;;;;-1.85;85.83;96681.34;5005639;28;20046;-81
2022/01/22 00:43:47;;;;;;;6.95;2.40;;;;;;;-1.89;85.62;96674.91;4988956;28;20412;-81
2022/01/22 00:46:12;;;;;;;7.57;2.10;;;;;;;-1.88;86.15;96668.75;5011967;28;20052;-80
2022/01/22 00:48:38;;;;;;;9.20;2.33;;;;;;;-1.87;85.40;96662.63;5002877;28;20125;-80
2022/01/22 00:51:03;;;;;;;8.65;2.17;;;;;;;-1.91;85.28;96672.50;4989133;28;20479;-81
2022/01/22 00:53:29;;;;;;;7.85;2.20;;;;;;;-1.97;86.44;96673.13;4990003;28;20050;-81
2022/01/22 00:55:54;;;;;;;4.07;2.00;;;;;;;-1.78;84.09;96666.81;5006645;28;20709;-81
2022/01/22 00:58:20;;;;;;;5.70;2.30;;;;;;;-1.72;83.32;96666.19;4989377;28;20398;-82
2022/01/22 01:00:46;;;;;;;5.07;2.28;;;;;;;-1.76;83.44;96660.53;5002973;28;20097;-81
2022/01/22 01:03:11;;;;;;;6.78;2.42;;;;;;;-1.72;83.28;96642.13;4987653;28;20038;-79
2022/01/22 01:05:37;;;;;;;4.60;2.22;;;;;;;-1.78;83.88;96647.00;5008945;28;20420;-81
2022/01/22 01:08:04;;;;;;;8.68;2.10;;;;;;;-1.75;83.75;96645.88;4995096;28;20046;-80
2022/01/22 01:10:30;;;;;;;9.70;2.90;;;;;;;-1.77;84.20;96645.22;4993392;28;20042;-82
2022/01/22 01:12:55;;;;;;;5.25;1.77;;;;;;;-1.86;83.92;96653.94;4992822;28;20043;-81
2022/01/22 01:15:55;;;;;;;7.22;2.35;;;;;;;-1.78;84.27;96656.50;4993775;28;20479;-81
2022/01/22 01:34:41;;;;;;;5.97;2.20;;;;;;;-1.65;80.47;96625.84;4992238;28;20053;-82
2022/01/22 01:37:07;;;;;;;4.60;2.03;;;;;;;-1.59;80.13;96635.50;4991636;28;20097;-81
2022/01/22 01:39:33;;;;;;;4.78;2.05;;;;;;;-1.61;81.29;96634.88;4990993;28;20538;-81
2022/01/22 01:42:06;;;;;;;7.45;1.98;;;;;;;-1.58;81.47;96636.28;5006984;28;20456;-81
2022/01/22 01:44:32;;;;;;;5.70;2.35;;;;;;;-1.66;80.38;96638.91;4992645;28;20049;-82
2022/01/22 01:47:01;;;;;;;5.85;1.83;;;;;;;-1.54;81.97;96641.94;4992461;28;20042;-81
2022/01/22 01:49:28;;;;;;;5.65;2.50;;;;;;;-1.54;80.71;96652.28;4991921;28;20042;-81
2022/01/22 01:51:56;;;;;;;8.50;1.98;;;;;;;-1.49;80.96;96634.53;4974254;28;20061;-80
2022/01/22 01:59:52;;;;;;;4.60;1.65;;;;;;;-1.38;79.57;96626.41;4988300;28;20073;-80
2022/01/22 02:02:18;;;;;;;5.22;1.90;;;;;;;-1.45;80.57;96630.63;4991524;28;20108;-80
2022/01/22 02:04:44;;;;;;;2.97;1.73;;;;;;;-1.38;79.96;96625.59;4997105;28;20089;-81
2022/01/22 02:07:10;;;;;;;7.35;1.70;;;;;;;-1.41;80.38;96616.41;4999319;28;20046;-81
2022/01/22 02:09:38;;;;;;;3.53;1.80;;;;;;;-1.38;79.55;96610.13;4991786;28;20054;-80
2022/01/22 02:12:11;;;;;;;1.33;1.02;;;;;;;-1.33;79.26;96607.84;4992387;28;20563;-80
2022/01/22 02:25:31;;;;;;;5.05;1.63;;;;;;;-1.33;79.60;96600.91;5000602;28;20042;-80
2022/01/22 02:27:56;;;;;;;3.58;1.42;;;;;;;-1.37;79.71;96586.69;5007452;28;20061;-81
2022/01/22 02:30:27;;;;;;;2.35;1.60;;;;;;;-1.30;79.82;96592.81;4993284;28;20552;-81
2022/01/22 02:35:45;;;;;;;3.13;1.77;;;;;;;-1.29;79.04;96589.25;4997039;28;20053;-81
2022/01/22 02:38:17;;;;;;;3.25;1.33;;;;;;;-1.20;78.45;96591.81;5009298;28;20516;-82
2022/01/22 02:40:48;;;;;;;4.25;1.60;;;;;;;-1.25;79.10;96595.72;4994289;28;20062;-82
2022/01/22 02:43:15;;;;;;;1.77;1.20;;;;;;;-1.23;78.58;96591.16;4995683;28;20059;-82
2022/01/22 02:45:42;;;;;;;1.45;1.20;;;;;;;-1.16;78.61;96593.09;5002134;28;20651;-81
2022/01/22 02:48:08;;;;;;;3.13;1.45;;;;;;;-1.19;79.50;96590.81;4997095;28;20038;-81
2022/01/22 02:50:34;;;;;;;4.30;1.48;;;;;;;-1.09;78.27;96599.19;5000387;28;20076;-80
2022/01/22 02:53:04;;;;;;;4.78;1.83;;;;;;;-1.14;79.81;96580.81;4998747;28;20447;-81
2022/01/22 02:55:30;;;;;;;3.33;1.40;;;;;;;-1.10;79.50;96592.41;4999295;28;20046;-81
2022/01/22 02:57:56;;;;;;;5.55;1.42;;;;;;;-1.24;79.55;96592.13;5006648;28;20048;-80
2022/01/22 03:00:22;;;;;;;5.68;1.90;;;;;;;-1.22;79.82;96595.38;5014869;28;20042;-81
2022/01/22 03:02:49;;;;;;;8.10;1.92;;;;;;;-1.22;80.59;96599.75;4998493;28;20046;-80
2022/01/22 03:05:15;;;;;;;3.20;1.63;;;;;;;-1.15;80.07;96600.69;5004449;28;20187;-81
2022/01/22 03:07:43;;;;;;;3.38;1.60;;;;;;;-1.08;79.49;96591.28;4999598;28;20051;-80
2022/01/22 03:10:11;;;;;;;3.38;1.70;;;;;;;-1.06;80.10;96593.69;5008579;28;20039;-81
2022/01/22 03:29:02;;;;;;;2.13;1.20;;;;;;;-1.11;82.59;96591.59;4997109;28;20045;-80
2022/01/22 03:31:27;;;;;;;5.50;1.85;;;;;;;-1.05;82.87;96593.53;4987848;28;20050;-81
2022/01/22 03:33:53;;;;;;;4.88;1.90;;;;;;;-1.03;82.29;96585.59;5005520;28;20049;-82
2022/01/22 03:36:20;;;;;;;4.05;1.50;;;;;;;-1.07;83.51;96589.50;5005592;28;20050;-80
2022/01/22 03:38:47;;;;;;;2.60;1.58;;;;;;;-1.09;84.07;96583.69;4979621;28;20081;-80
2022/01/22 03:41:13;;;;;;;3.85;1.90;;;;;;;-1.10;84.64;96587.25;5003794;28;20049;-81
2022/01/22 03:43:39;;;;;;;5.78;1.98;;;;;;;-1.11;85.77;96590.78;5008357;28;20061;-81
2022/01/22 03:46:05;;;;;;;5.05;1.75;;;;;;;-1.21;87.47;96585.81;4997280;28;20089;-80
2022/01/22 03:48:30;;;;;;;3.22;1.52;;;;;;;-1.28;87.94;96580.56;4993672;28;20046;-80
2022/01/22 03:50:56;;;;;;;2.17;1.27;;;;;;;-1.29;88.53;96585.88;5002861;28;20046;-80
2022/01/22 03:53:21;;;;;;;3.83;2.00;;;;;;;-1.30;89.22;96582.47;4995387;28;20089;-81
2022/01/22 03:56:04;;;;;;;3.65;1.77;;;;;;;-1.28;89.85;96585.72;5020019;28;20038;-81
2022/01/22 03:58:32;;;;;;;5.78;2.03;;;;;;;-1.41;91.19;96586.25;5003710;28;20046;-81
2022/01/22 04:03:45;;;;;;;4.63;1.95;;;;;;;-1.40;91.20;96582.66;4990519;28;20045;-80
2022/01/22 04:08:57;;;;;;;4.57;1.85;;;;;;;-1.40;92.93;96592.22;4989543;28;20038;-81
2022/01/22 04:11:22;;;;;;;3.75;2.22;;;;;;;-1.44;94.52;96588.34;5007918;28;20041;-81
2022/01/22 04:13:51;;;;;;;3.20;1.58;;;;;;;-1.62;96.05;96589.38;4994087;28;20050;-81
2022/01/22 04:16:17;;;;;;;3.85;1.35;;;;;;;-1.59;96.87;96589.03;4995810;28;20038;-80
2022/01/22 04:26:58;;;;;;;4.77;2.10;;;;;;;-1.68;98.66;96579.72;4991567;28;20088;-79
2022/01/22 04:29:26;;;;;;;2.90;1.73;;;;;;;-1.67;98.07;96570.97;4992147;28;20284;-80
2022/01/22 04:31:52;;;;;;;7.22;1.60;;;;;;;-1.65;98.66;96576.81;5008954;28;20053;-80
2022/01/22 04:34:18;;;;;;;7.88;2.03;;;;;;;-1.72;99.31;96578.44;4989763;28;20174;-80
2022/01/22 04:36:44;;;;;;;5.65;2.17;;;;;;;-1.64;98.47;96586.16;5001978;28;20042;-80
2022/01/22 04:39:10;;;;;;;2.90;1.73;;;;;;;-1.66;98.79;96585.50;4990395;28;20042;-80
2022/01/22 04:41:36;;;;;;;3.20;1.98;;;;;;;-1.64;98.75;96596.50;5003366;28;20550;-80
2022/01/22 04:44:04;;;;;;;3.28;1.55;;;;;;;-1.72;99.67;96593.91;4993563;28;20038;-80
2022/01/22 04:46:51;;;;;;;4.85;2.28;;;;;;;-1.75;99.94;96583.94;4980005;28;20053;-80
2022/01/22 04:57:17;;;;;;;6.43;2.65;;;;;;;-1.73;100.00;96592.31;4991172;28;20516;-80
2022/01/22 04:59:44;;;;;;;5.43;2.05;;;;;;;-1.71;100.00;96590.38;4988406;28;20062;-81
2022/01/22 05:02:10;;;;;;;9.30;2.50;;;;;;;-1.71;100.00;96595.53;5004268;28;20078;-80
2022/01/22 05:04:35;;;;;;;5.47;2.10;;;;;;;-1.67;100.00;96586.47;5002614;28;20047;-80
2022/01/22 05:07:01;;;;;;;8.85;2.40;;;;;;;-1.66;100.00;96582.94;4987436;28;20117;-80
2022/01/22 05:09:27;;;;;;;7.57;2.70;;;;;;;-1.75;100.00;96594.25;4984972;28;20038;-80
2022/01/22 05:11:53;;;;;;;5.95;2.50;;;;;;;-1.61;99.95;96585.81;4982037;28;20046;-81
2022/01/22 05:14:19;;;;;;;5.30;2.40;;;;;;;-1.61;99.68;96580.66;4993623;28;20053;-80
2022/01/22 05:16:44;;;;;;;3.75;1.85;;;;;;;-1.61;99.72;96588.41;5006805;28;20065;-80
2022/01/22 05:19:24;;;;;;;9.38;2.92;;;;;;;-1.62;99.93;96589.38;4991647;28;20042;-80
2022/01/22 05:21:52;;;;;;;5.28;2.22;;;;;;;-1.54;99.33;96574.84;4990064;28;20047;-80
2022/01/22 05:24:22;;;;;;;4.90;2.53;;;;;;;-1.55;99.56;96575.78;4989488;28;20053;-80
2022/01/22 05:37:22;;;;;;;15.68;3.00;;;;;;;-1.52;100.00;96562.53;4984330;28;20043;-80
2022/01/22 05:39:49;;;;;;;10.93;3.30;;;;;;;-1.51;100.00;96574.50;4989508;28;20045;-81
2022/01/22 05:42:14;;;;;;;8.52;4.60;;;;;;;-1.47;100.00;96580.94;4994733;28;20046;-80
2022/01/22 05:44:41;;;;;;;10.05;3.45;;;;;;;-1.57;100.00;96581.94;4994077;28;20046;-80
2022/01/22 05:47:07;;;;;;;7.13;3.08;;;;;;;-1.48;100.00;96579.31;5002014;28;20035;-80
2022/01/22 05:49:39;;;;;;;10.52;5.05;;;;;;;-1.51;100.00;96582.25;4995067;28;20515;-81
2022/01/22 05:52:07;;;;;;;6.97;3.70;;;;;;;-1.60;100.00;96587.41;4994554;28;20120;-80
2022/01/22 05:59:43;;;;;;;7.43;2.88;;;;;;;-1.48;100.00;96592.22;4993208;28;20089;-79
2022/01/22 06:02:15;;;;;;;5.80;3.20;;;;;;;-1.50;100.00;96596.75;4992730;28;20117;-81
2022/01/22 06:04:41;;;;;;;9.32;3.25;;;;;;;-1.48;100.00;96600.78;4991748;28;20122;-79
2022/01/22 06:07:08;;;;;;;10.27;3.70;;;;;;;-1.51;100.00;96600.31;4992999;28;20042;-80
2022/01/22 06:09:38;;;;;;;6.30;2.92;;;;;;;-1.55;100.00;96599.03;4993098;28;20089;-79
2022/01/22 06:12:15;;;;;;;13.30;4.30;;;;;;;-1.49;100.00;96603.53;5008742;28;20061;-80
2022/01/22 06:14:42;;;;;;;6.93;3.85;;;;;;;-1.49;100.00;96608.72;4990896;28;20065;-79
2022/01/22 06:17:08;;;;;;;5.95;3.17;;;;;;;-1.47;100.00;96606.75;4992522;28;20073;-80
2022/01/22 06:19:34;;;;;;;10.25;3.95;;;;;;;-1.48;100.00;96607.72;4993751;28;20045;-81
2022/01/22 06:22:00;;;;;;;9.45;3.88;;;;;;;-1.48;100.00;96594.81;4993537;28;20117;-81
2022/01/22 06:24:26;;;;;;;8.13;3.90;;;;;;;-1.45;100.00;96604.78;4992648;28;20659;-79
2022/01/22 06:26:52;;;;;;;8.02;3.63;;;;;;;-1.42;100.00;96604.50;4991620;28;20471;-81
2022/01/22 06:29:19;;;;;;;9.35;3.25;;;;;;;-1.44;100.00;96596.09;4991554;28;20048;-81
2022/01/22 06:31:44;;;;;;;8.23;4.43;;;;;;;-1.44;100.00;96616.75;4992111;28;20039;-80
2022/01/22 06:34:10;;;;;;;8.82;4.57;;;;;;;-1.41;100.00;96611.25;4992535;28;20117;-79
2022/01/22 06:36:35;;;;;;;8.23;4.50;;;;;;;-1.38;100.00;96630.78;4992210;28;20492;-80
2022/01/22 06:39:17;;;;;;;6.75;2.83;;;;;;;-1.31;100.00;96616.22;5006275;28;20038;-79
2022/01/22 06:41:46;;;;;;;11.02;4.22;;;;;;;-1.43;100.00;96631.28;4984254;28;20526;-80
2022/01/22 06:44:21;;;;;;;9.63;4.85;;;;;;;-1.47;100.00;96653.22;5000919;28;20088;-80
2022/01/22 06:46:51;;;;;;;;;;;;;;;-1.29;100.00;96630.59;4989048;28;20053;-80
2022/01/22 06:49:16;;;;;;;6.72;3.15;;;;;;;-1.24;100.00;96638.63;4991506;28;19929;-79
2022/01/22 06:51:42;;;;;;;12.70;5.18;;;;;;;-1.31;100.00;96648.00;4993519;28;20042;-80
2022/01/22 06:54:10;;;;;;;10.57;4.65;;;;;;;-1.38;100.00;96652.22;4999568;28;20034;-80
2022/01/22 06:56:37;;;;;;;11.90;4.55;;;;;;;-1.22;100.00;96631.53;4990462;28;20061;-80
2022/01/22 06:59:04;;;;;;;10.00;5.10;;;;;;;-1.24;100.00;96643.78;5007162;28;20062;-80
2022/01/22 07:01:29;;;;;;;16.63;5.32;;;;;;;-1.29;100.00;96640.91;4999975;28;20038;-80
2022/01/22 07:03:55;;;;;;;9.27;4.80;;;;;;;-1.28;100.00;96642.53;4990430;28;20586;-81
2022/01/22 07:06:22;;;;;;;8.15;4.88;;;;;;;-1.22;100.00;96631.53;4994614;28;20043;-80
2022/01/22 07:08:48;;;;;;;8.95;4.22;;;;;;;-1.15;100.00;96630.84;4992474;28;20046;-80
2022/01/22 07:11:14;;;;;;;12.75;4.90;;;;;;;-1.20;100.00;96636.53;4996182;28;20047;-81
2022/01/22 07:13:39;;;;;;;7.20;3.88;;;;;;;-1.14;100.00;96637.63;5000576;28;20046;-80
2022/01/22 07:16:06;;;;;;;15.93;5.35;;;;;;;-1.19;100.00;96645.06;5000809;28;20048;-79
2022/01/22 07:18:32;;;;;;;10.15;5.07;;;;;;;-1.22;100.00;96641.84;4986546;28;20043;-81
2022/01/22 07:20:58;;;;;;;9.02;4.72;;;;;;;-1.14;100.00;96650.56;4995357;28;20034;-81
2022/01/22 07:26:03;;;;;;;10.90;4.97;;;;;;;-1.13;100.00;96654.75;5001029;28;20125;-79
2022/01/22 07:28:29;;;;;;;9.25;4.05;;;;;;;-1.12;100.00;96646.00;4999487;28;20041;-82
2022/01/22 07:30:54;;;;;;;10.57;5.47;;;;;;;-1.25;100.00;96647.38;4994717;28;20039;-81
2022/01/22 07:33:20;;;;;;;9.88;5.10;;;;;;;-1.15;100.00;96648.94;4992146;28;20049;-80
2022/01/22 07:35:47;;;;;;;17.50;6.65;;;;;;;-1.27;100.00;96654.47;4993010;28;20050;-81
2022/01/22 07:38:12;;;;;;;13.48;6.60;;;;;;;-1.24;100.00;96659.28;4992361;28;20042;-81
2022/01/22 07:40:38;;;;;;;14.10;6.75;;;;;;;-1.23;100.00;96665.28;4992168;28;22368;-80
2022/01/22 07:43:04;;;;;;;10.57;5.60;;;;;;;-1.34;100.00;96669.00;5006482;28;20049;-80
2022/01/22 07:45:31;;;;;;;18.98;7.82;;;;;;;-1.27;100.00;96675.13;4985451;28;20501;-80
2022/01/22 07:47:57;;;;;;;12.00;6.22;;;;;;;-1.19;100.00;96670.91;4989347;28;20086;-80
2022/01/22 07:50:23;;;;;;;11.25;5.20;;;;;;;-1.27;100.00;96680.28;4992143;28;20038;-79
2022/01/22 07:52:50;;;;;;;13.98;5.85;;;;;;;-1.25;100.00;96682.69;5010831;28;20603;-79
2022/01/22 07:55:19;;;;;;;12.80;5.57;;;;;;;-1.29;100.00;96687.41;4992743;28;20128;-79
2022/01/22 07:57:44;;;;;;;12.45;6.32;;;;;;;-1.33;100.00;96691.28;5005305;28;20050;-79
2022/01/22 08:00:11;;;;;;;9.27;5.38;;;;;;;-1.27;100.00;96689.81;4990362;28;20050;-79
2022/01/22 08:02:38;;;;;;;11.02;5.88;;;;;;;-1.33;100.00;96686.13;4989730;28;20481;-80
2022/01/22 08:05:04;;;;;;;13.73;6.13;;;;;;;-1.35;100.00;96692.41;4990168;28;20053;-80
2022/01/22 08:07:29;;;;;;;16.33;6.60;;;;;;;-1.40;100.00;96690.34;4990368;28;20524;-80
2022/01/22 08:09:55;;;;;;;12.68;4.65;;;;;;;-1.33;100.00;96686.13;4989896;28;20041;-80
2022/01/22 08:12:21;;;;;;;14.90;5.85;;;;;;;-1.23;100.00;96686.72;4990289;28;20552;-79
2022/01/22 08:14:46;;;;;;;14.30;6.45;;;;;;;-1.34;100.00;96684.50;4989988;28;20042;-79
2022/01/22 08:17:12;;;;;;;14.20;6.35;;;;;;;-1.42;100.00;96681.97;4995060;28;20044;-79
2022/01/22 08:19:38;;;;;;;12.23;6.15;;;;;;;-1.34;100.00;96689.66;4989218;28;20038;-80
2022/01/22 08:22:04;;;;;;;12.65;6.45;;;;;;;-1.22;100.00;96682.41;5005580;28;20049;-79
2022/01/22 08:24:30;;;;;;;13.32;5.97;;;;;;;-1.19;100.00;96691.56;4990778;28;20042;-80
2022/01/22 08:29:33;;;;;;;12.10;6.20;;;;;;;-1.19;100.00;96687.22;4990714;28;20069;-79
2022/01/22 08:37:35;;;;;;;11.63;5.37;;;;;;;-1.03;100.00;96701.88;4993163;28;20034;-80
2022/01/22 08:40:07;;;;;;;19.13;7.45;;;;;;;-0.97;100.00;96698.59;4990360;28;20046;-79
2022/01/22 08:42:32;;;;;;;12.45;5.47;;;;;;;-0.99;100.00;96713.50;4989899;28;20042;-80
2022/01/22 08:44:58;;;;;;;13.32;6.22;;;;;;;-0.78;100.00;96702.56;4992928;28;20048;-77
2022/01/22 08:47:23;;;;;;;11.85;5.05;;;;;;;-0.91;100.00;96705.69;4990078;28;20050;-88
2022/01/22 08:49:49;;;;;;;12.52;6.18;;;;;;;-0.96;100.00;96707.97;5003781;28;20042;-88
2022/01/22 08:52:16;;;;;;;11.05;5.32;;;;;;;-1.05;100.00;96706.38;5012216;28;20066;-88
2022/01/22 08:54:43;;;;;;;14.55;6.03;;;;;;;-0.97;100.00;96727.03;4983653;28;20057;-87
2022/01/22 08:57:09;;;;;;;11.27;5.53;;;;;;;-1.08;100.00;96719.63;4992974;28;20608;-85
2022/01/22 08:59:35;;;;;;;12.30;6.30;;;;;;;-1.08;100.00;96729.97;4989340;28;20046;-88
2022/01/22 09:02:02;;;;;;;14.55;5.70;;;;;;;-1.10;100.00;96732.72;4995874;28;20454;-85
2022/01/22 09:04:28;;;;;;;18.75;7.80;;;;;;;-1.06;100.00;96733.22;5002119;28;20519;-87
2022/01/22 09:06:54;;;;;;;19.15;7.72;;;;;;;-1.13;100.00;96732.25;4991594;28;20047;-87
2022/01/22 09:09:19;;;;;;;13.07;6.93;;;;;;;-1.06;100.00;96738.38;4991309;28;20097;-79
2022/01/22 09:11:46;;;;;;;15.65;7.10;;;;;;;-1.09;100.00;96729.16;4991504;28;20145;-83
2022/01/22 09:14:15;;;;;;;13.85;7.05;;;;;;;-1.00;100.00;96732.53;5007564;28;20100;-81
2022/01/22 09:16:41;;;;;;;12.40;5.30;;;;;;;-0.83;100.00;96737.63;4990581;28;20081;-79
2022/01/22 09:19:10;;;;;;;17.13;6.80;;;;;;;-1.01;100.00;96741.25;4989449;28;20046;-80
2022/01/22 09:21:39;;;;;;;15.98;7.68;;;;;;;-0.94;100.00;96742.19;4991149;28;20046;-81
2022/01/22 09:24:05;;;;;;;16.48;7.60;;;;;;;-0.95;100.00;96745.78;4986691;28;20503;-79
2022/01/22 09:26:31;;;;;;;21.63;8.75;;;;;;;-0.83;100.00;96750.56;4991556;28;20046;-80
2022/01/22 09:29:00;;;;;;;22.42;7.95;;;;;;;-0.89;100.00;96754.63;4979537;28;20567;-80
2022/01/22 09:31:27;;;;;;;17.40;7.82;;;;;;;-0.89;100.00;96755.44;4993203;28;20145;-79
2022/01/22 09:33:57;;;;;;;18.60;8.68;;;;;;;-0.96;100.00;96759.66;4995259;28;20141;-79
2022/01/22 09:36:23;;;;;;;16.70;7.30;;;;;;;-0.79;100.00;96754.44;5007577;28;20104;-79
2022/01/22 09:38:50;;;;;;;26.38;10.52;;;;;;;-0.83;100.00;96747.97;4991982;28;20463;-80
2022/01/22 09:41:17;;;;;;;25.10;6.85;;;;;;;-0.92;100.00;96749.78;4993548;28;20047;-80
2022/01/22 09:43:42;;;;;;;19.55;8.07;;;;;;;-0.98;100.00;96761.59;4990690;28;20497;-80
2022/01/22 09:46:09;;;;;;;25.90;9.93;;;;;;;-0.80;100.00;96763.19;4991869;28;20038;-80
2022/01/22 09:48:42;;;;;;;18.70;7.70;;;;;;;-0.87;100.00;96758.66;4991376;28;20042;-80
2022/01/22 09:51:08;;;;;;;19.35;8.60;;;;;;;-0.76;100.00;96769.59;5009662;28;20105;-79
2022/01/22 09:53:35;;;;;;;16.73;6.95;;;;;;;-0.88;100.00;96777.75;4997109;28;20047;-79
2022/01/22 09:56:00;;;;;;;17.70;7.00;;;;;;;-0.82;100.00;96778.03;4993802;28;20058;-78
2022/01/22 09:58:26;;;;;;;18.90;7.40;;;;;;;-0.76;100.00;96779.94;4990902;28;20066;-79
2022/01/22 10:00:52;;;;;;;47.65;18.42;;;;;;;-0.67;100.00;96794.47;4981328;28;20772;-79
2022/01/22 10:03:19;;;;;;;18.65;7.60;;;;;;;-0.69;100.00;96786.06;4994994;28;20097;-76
2022/01/22 10:05:46;;;;;;;18.83;8.45;;;;;;;-0.69;100.00;96801.56;4992319;28;20046;-81
2022/01/22 10:08:34;;;;;;;12.77;6.93;;;;;;;-0.79;100.00;96794.03;4986573;28;20038;-77
2022/01/22 10:11:01;;;;;;;14.50;6.88;;;;;;;-0.80;100.00;96794.19;4997793;28;20047;-77
2022/01/22 10:13:40;;;;;;;17.88;7.20;;;;;;;-0.70;100.00;96797.41;4976363;28;20447;-76
2022/01/22 10:16:25;;;;;;;16.52;7.05;;;;;;;-0.78;100.00;96798.22;4993225;28;20062;-77
2022/01/22 10:19:15;;;;;;;19.60;6.43;;;;;;;-0.73;100.00;96795.16;4990721;28;20042;-78
2022/01/22 10:22:02;;;;;;;20.02;7.78;;;;;;;-0.64;100.00;96796.72;4987450;28;20062;-76
2022/01/22 10:24:35;;;;;;;20.90;8.48;;;;;;;-0.70;100.00;96802.56;4992007;28;20079;-77
2022/01/22 10:27:36;;;;;;;25.63;10.20;;;;;;;-0.67;100.00;96789.31;4990270;28;20039;-76
2022/01/22 10:30:14;;;;;;;14.95;6.57;;;;;;;-0.62;100.00;96794.75;4992143;28;20058;-77
2022/01/22 10:35:25;;;;;;;15.45;7.07;;;;;;;-0.68;100.00;96792.06;4975924;28;20039;-77
2022/01/22 10:38:00;;;;;;;15.77;6.87;;;;;;;-0.73;100.00;96801.13;4992150;28;20077;-78
2022/01/22 10:40:27;;;;;;;16.52;7.30;;;;;;;-0.79;100.00;96791.44;4989556;28;20517;-76
2022/01/22 10:43:30;;;;;;;17.75;6.95;;;;;;;-0.80;100.00;96789.03;4991048;28;20049;-75
2022/01/22 10:46:00;;;;;;;16.45;7.68;;;;;;;-0.73;100.00;96779.63;4980098;28;20054;-76
2022/01/22 10:48:27;;;;;;;18.88;6.70;;;;;;;-0.72;100.00;96776.06;4985459;28;20046;-76
2022/01/22 10:51:01;;;;;;;15.93;6.65;;;;;;;-0.69;100.00;96786.06;4990870;28;20073;-77
2022/01/22 10:53:36;;;;;;;10.95;5.15;;;;;;;-0.70;100.00;96784.47;4989966;28;20050;-78
2022/01/22 10:56:04;;;;;;;14.15;7.47;;;;;;;-0.65;100.00;96766.66;4992994;28;20125;-77
2022/01/22 10:58:32;;;;;;;19.52;7.97;;;;;;;-0.71;100.00;96777.69;5001905;28;20049;-78
2022/01/22 11:01:00;;;;;;;13.85;6.18;;;;;;;-0.64;100.00;96783.78;5007029;28;20038;-77
2022/01/22 11:03:28;;;;;;;16.40;7.57;;;;;;;-0.65;100.00;96787.34;4986426;28;20062;-76
2022/01/22 11:05:55;;;;;;;17.27;7.30;;;;;;;-0.54;100.00;96784.41;4980326;28;20110;-75
2022/01/22 11:08:21;;;;;;;19.38;7.35;;;;;;;-0.63;100.00;96780.25;4998382;28;20108;-75
2022/01/22 11:10:46;;;;;;;12.93;6.00;;;;;;;-0.56;100.00;96776.03;4990251;28;20030;-77
2022/01/22 11:13:12;;;;;;;13.57;6.82;;;;;;;-0.57;100.00;96779.56;4990569;28;20471;-76
2022/01/22 11:15:43;;;;;;;13.10;5.22;;;;;;;-0.54;100.00;96781.81;4984813;28;20062;-77
2022/01/22 11:18:10;;;;;;;18.55;6.90;;;;;;;-0.49;100.00;96801.19;4990488;28;20031;-77
2022/01/22 11:20:36;;;;;;;20.67;7.80;;;;;;;-0.54;100.00;96799.91;4989952;28;20043;-77
2022/01/22 11:23:02;;;;;;;11.95;5.43;;;;;;;-0.49;100.00;96801.19;4989529;28;20048;-75
2022/01/22 11:25:29;;;;;;;15.85;7.55;;;;;;;-0.64;100.00;96788.97;4989591;28;20544;-75
2022/01/22 11:27:55;;;;;;;19.10;6.97;;;;;;;-0.54;100.00;96797.31;4979055;28;20496;-77
2022/01/22 11:30:25;;;;;;;17.35;6.95;;;;;;;-0.61;100.00;96798.19;4990790;28;20042;-78
2022/01/22 11:33:10;;;;;;;12.20;5.95;;;;;;;-0.54;100.00;96805.09;4994312;28;20046;-77
2022/01/22 11:36:09;;;;;;;14.65;6.72;;;;;;;-0.62;100.00;96807.69;4991163;28;20046;-75
2022/01/22 11:38:37;;;;;;;17.20;7.60;;;;;;;-0.61;100.00;96809.31;4999097;28;20148;-79
2022/01/22 11:41:03;;;;;;;17.80;7.45;;;;;;;-0.67;100.00;96820.31;5005272;28;20038;-74
2022/01/22 11:46:38;;;;;;;17.02;7.32;;;;;;;-0.68;100.00;96800.59;4989585;28;20043;-74
2022/01/22 11:49:26;;;;;;;15.70;6.95;;;;;;;-0.66;100.00;96801.25;4990423;28;20038;-77
2022/01/22 11:52:07;;;;;;;11.93;5.90;;;;;;;-0.65;100.00;96808.03;4987974;28;20052;-76
2022/01/22 11:54:51;;;;;;;11.43;5.30;;;;;;;-0.70;100.00;96794.81;4996635;28;20120;-76
2022/01/22 11:57:17;;;;;;;22.00;6.93;;;;;;;-0.69;100.00;96801.56;4988275;28;20039;-77
2022/01/22 11:59:46;;;;;;;20.00;7.25;;;;;;;-0.54;100.00;96799.13;4982200;28;20044;-75
2022/01/22 12:02:15;;;;;;;15.27;6.38;;;;;;;-0.64;100.00;96788.16;4983774;28;20046;-78
2022/01/22 12:04:41;;;;;;;13.45;6.40;;;;;;;-0.66;100.00;96792.69;4989011;28;20049;-76
2022/01/22 12:07:07;;;;;;;11.10;5.65;;;;;;;-0.59;100.00;96802.22;4989416;28;20038;-75
2022/01/22 12:15:49;;;;;;;16.48;7.22;;;;;;;-0.57;100.00;96795.09;4989664;28;20284;-76
2022/01/22 12:18:17;;;;;;;18.90;6.22;;;;;;;-0.60;100.00;96790.25;4989259;28;20042;-76
2022/01/22 12:23:19;;;;;;;19.63;8.18;;;;;;;-0.62;100.00;96792.19;4989040;28;20054;-79
2022/01/22 12:25:45;;;;;;;16.05;6.22;;;;;;;-0.59;100.00;96791.88;4995282;28;20042;-77
2022/01/22 12:28:31;;;;;;;18.90;7.22;;;;;;;-0.66;100.00;96790.94;4999349;28;20046;-77
2022/01/22 12:31:19;;;;;;;14.82;6.55;;;;;;;-0.48;100.00;96785.50;4990434;28;20042;-78
2022/01/22 12:33:52;;;;;;;15.32;6.43;;;;;;;-0.46;100.00;96795.69;4987986;28;20446;-77
2022/01/22 12:36:27;;;;;;;17.63;7.63;;;;;;;-0.57;100.00;96784.75;4986464;28;20046;-77
2022/01/22 12:39:06;;;;;;;17.30;7.38;;;;;;;-0.69;100.00;96799.00;4988052;28;20300;-77
2022/01/22 12:44:07;;;;;;;16.52;7.30;;;;;;;-0.54;100.00;96789.56;4994479;28;20050;-76
2022/01/22 12:46:34;;;;;;;17.52;7.55;;;;;;;-0.42;100.00;96786.63;4988923;28;20708;-76
2022/01/22 12:49:02;;;;;;;20.17;7.85;;;;;;;-0.55;100.00;96793.16;4987085;28;20089;-76
2022/01/22 12:51:28;;;;;;;20.33;8.10;;;;;;;-0.43;100.00;96787.59;5003707;28;20121;-75
2022/01/22 12:53:54;;;;;;;18.17;7.97;;;;;;;-0.45;100.00;96790.34;4987452;28;20065;-75
2022/01/22 12:59:08;;;;;;;21.48;7.78;;;;;;;-0.08;100.00;96782.91;4987928;28;20038;-75
2022/01/22 13:01:35;;;;;;;17.42;7.38;;;;;;;-0.27;100.00;96784.94;4998846;28;20120;-75
2022/01/22 13:04:06;;;;;;;15.13;6.55;;;;;;;-0.38;100.00;96782.72;4987417;28;20042;-74
2022/01/22 13:06:45;;;;;;;19.30;8.05;;;;;;;-0.43;100.00;96790.16;4988294;28;20456;-74
2022/01/22 13:09:12;;;;;;;18.58;7.88;;;;;;;-0.44;100.00;96793.75;4990525;28;20047;-74
2022/01/22 13:11:46;;;;;;;20.25;7.63;;;;;;;-0.36;100.00;96785.94;4990941;28;20073;-74
2022/01/22 13:14:17;;;;;;;11.93;5.93;;;;;;;-0.41;100.00;96775.31;5004167;28;20038;-73
2022/01/22 13:16:51;;;;;;;17.88;7.93;;;;;;;-0.43;100.00;96775.47;4983989;28;20047;-74
2022/01/22 13:19:17;;;;;;;16.30;7.40;;;;;;;-0.41;100.00;96789.03;4984530;28;20039;-74
2022/01/22 13:22:02;;;;;;;20.30;7.28;;;;;;;-0.56;100.00;96791.53;5002584;28;20103;-74
2022/01/22 13:24:29;;;;;;;18.40;7.07;;;;;;;-0.39;100.00;96786.28;4992604;28;20051;-73
2022/01/22 13:27:17;;;;;;;15.77;7.25;;;;;;;-0.46;100.00;96785.34;4985346;28;20049;-74
2022/01/22 13:29:53;;;;;;;18.98;7.85;;;;;;;-0.52;100.00;96802.34;4991477;28;20049;-74
2022/01/22 13:35:16;;;;;;;16.55;7.75;;;;;;;-0.42;100.00;96807.31;4992083;28;20042;-73